Universal City, California
Current Conditions -  °F | °C
As of 2:53 PM on Saturday 25 Oct 2014 (Local Time) from KBUR Reporting Station
Few Clouds Few Clouds  
Wind Chill: 82°   Ceiling: Unl
Heat Index: 82°   Visibility: 10mi
Dew Point: 44°   Wind: 8mph
Humidity: 26%   Direction: 140°SE
Pressure: 30.01"   Gusts: NA
Location:  34.13°N, 118.35°W
Report Text: KBUR 252153Z 14007KT 10SM FEW090 28/07 A3001 RMK AO2 SLP149 T02780067
Loading
Personal Weather Stations






























Interactive Weather Map
Tropical Storm Tracking
New forecast layout! Learn more

10-Day Weather Forecast

Advertisements
Track Severe Weather on mobile